Hasbrouck Heights, New Jersey
Current Conditions -  °F | °C
As of 2:51 PM on Saturday 20 Dec 2014 (Local Time) from KTEB Reporting Station
Overcast Overcast  
Wind Chill: 34°   Ceiling: 3200
Heat Index: 34°   Visibility: 10mi
Dew Point: 19°   Wind: 3mph
Humidity: 54%   Direction: 20°NNE
Pressure: 30.25"   Gusts: NA
Location:  40.86°N, 74.08°W
Report Text: KTEB 201951Z 02003KT 10SM OVC032 01/M07 A3025 RMK AO2 SLP244 T00111072
Loading
Personal Weather Stations






























Interactive Weather Map New forecast layout! Learn more

10-Day Weather Forecast

Advertisements
Track Severe Weather on mobile